createdAt,value
2019-03-26T00:00:45.168Z,79.70
2019-03-26T00:03:17.768Z,80.06
2019-03-26T00:05:51.738Z,79.48
2019-03-26T00:08:24.468Z,79.65
2019-03-26T00:10:57.008Z,79.77
2019-03-26T00:13:29.730Z,80.35
2019-03-26T00:16:02.333Z,81.19
2019-03-26T00:18:34.918Z,81.52
2019-03-26T00:21:07.404Z,81.50
2019-03-26T00:23:39.891Z,80.90
2019-03-26T00:26:12.308Z,80.66
2019-03-26T00:28:44.774Z,81.04
2019-03-26T00:31:17.448Z,80.72
2019-03-26T00:33:50.084Z,80.03
2019-03-26T00:36:22.648Z,80.31
2019-03-26T00:38:55.129Z,80.63
2019-03-26T00:41:27.609Z,80.38
2019-03-26T00:44:00.258Z,80.70
2019-03-26T00:46:33.119Z,80.72
2019-03-26T00:49:05.599Z,80.76
2019-03-26T00:51:38.040Z,80.12
2019-03-26T00:54:10.939Z,80.21
2019-03-26T00:56:43.322Z,79.90
2019-03-26T00:59:15.798Z,80.39
2019-03-26T01:01:49.380Z,80.36
2019-03-26T01:04:32.175Z,79.83
2019-03-26T01:06:56.034Z,79.93
2019-03-26T01:09:28.753Z,79.88
2019-03-26T01:12:01.225Z,80.74
2019-03-26T01:14:33.748Z,80.41
2019-03-26T01:17:06.395Z,80.27
2019-03-26T01:19:39.005Z,81.07
2019-03-26T01:22:11.585Z,80.96
2019-03-26T01:24:44.105Z,80.33
2019-03-26T01:27:16.835Z,79.76
2019-03-26T01:29:49.325Z,79.84
2019-03-26T01:32:23.228Z,79.92
2019-03-26T01:34:55.946Z,79.72
2019-03-26T01:37:28.523Z,80.33
2019-03-26T01:40:01.214Z,80.35
2019-03-26T01:42:33.898Z,80.05
2019-03-26T01:45:07.208Z,80.60
2019-03-26T01:47:39.743Z,80.41
2019-03-26T01:50:12.446Z,81.45
2019-03-26T01:52:44.894Z,81.53
2019-03-26T01:55:17.583Z,81.60
2019-03-26T01:57:51.169Z,82.12
2019-03-26T02:00:23.733Z,81.36
2019-03-26T02:02:57.397Z,83.47
2019-03-26T02:05:30.125Z,82.46
2019-03-26T02:08:02.655Z,83.04
2019-03-26T02:10:35.355Z,82.35
2019-03-26T02:13:07.986Z,82.31
2019-03-26T02:15:40.565Z,83.29
2019-03-26T02:18:13.173Z,83.62
2019-03-26T02:20:45.685Z,82.53
2019-03-26T02:23:18.254Z,82.15
2019-03-26T02:25:50.775Z,82.78
2019-03-26T02:28:23.925Z,83.28
2019-03-26T02:30:56.561Z,82.77
2019-03-26T02:33:29.109Z,82.80
2019-03-26T02:36:02.608Z,83.49
2019-03-26T02:38:35.166Z,82.69
2019-03-26T02:41:07.816Z,82.65
2019-03-26T02:43:40.487Z,81.95
2019-03-26T02:46:13.706Z,82.22
2019-03-26T02:48:46.249Z,82.64
2019-03-26T02:51:18.950Z,82.30
2019-03-26T02:53:51.523Z,82.79
2019-03-26T02:56:24.035Z,82.78
2019-03-26T02:58:56.802Z,83.01
2019-03-26T03:01:30.395Z,83.19
2019-03-26T03:04:02.905Z,82.46
2019-03-26T03:06:35.407Z,82.52
2019-03-26T03:09:08.236Z,81.96
2019-03-26T03:11:40.785Z,82.60
2019-03-26T03:14:13.327Z,82.68
2019-03-26T03:16:45.836Z,83.27
2019-03-26T03:19:18.405Z,82.16
2019-03-26T03:21:50.873Z,82.73
2019-03-26T03:24:23.555Z,83.42
2019-03-26T03:26:56.256Z,82.54
2019-03-26T03:29:28.814Z,83.42
2019-03-26T03:32:01.276Z,83.41
2019-03-26T03:34:33.734Z,83.48
2019-03-26T03:37:06.373Z,84.02
2019-03-26T03:39:38.799Z,82.12
2019-03-26T03:42:11.346Z,82.93
2019-03-26T03:44:43.840Z,82.87
2019-03-26T03:47:18.537Z,81.95
2019-03-26T03:49:51.250Z,82.53
2019-03-26T03:52:24.990Z,81.98
2019-03-26T03:54:57.627Z,81.52
2019-03-26T03:57:32.787Z,81.62
2019-03-26T04:00:05.997Z,80.64
2019-03-26T04:02:38.576Z,80.75
2019-03-26T04:05:11.442Z,79.77
2019-03-26T04:07:43.905Z,81.44
2019-03-26T04:10:16.757Z,82.03
2019-03-26T04:12:49.386Z,81.41
2019-03-26T04:15:21.812Z,81.41
2019-03-26T04:17:54.365Z,80.92
2019-03-26T04:20:26.896Z,81.17
2019-03-26T04:23:00.206Z,81.49
2019-03-26T04:25:32.789Z,81.00
2019-03-26T04:28:05.343Z,81.70
2019-03-26T04:30:38.014Z,81.95
2019-03-26T04:33:10.510Z,81.27
2019-03-26T04:35:43.042Z,81.42
2019-03-26T04:38:15.726Z,81.81
2019-03-26T04:40:48.146Z,80.38
2019-03-26T04:43:20.696Z,81.34
2019-03-26T04:45:53.365Z,80.81
2019-03-26T04:48:26.133Z,81.38
2019-03-26T04:50:58.715Z,81.32
2019-03-26T04:53:34.101Z,80.83
2019-03-26T04:56:05.906Z,80.79
2019-03-26T04:58:38.505Z,80.16
2019-03-26T05:01:11.055Z,80.80
2019-03-26T05:03:43.785Z,81.85
2019-03-26T05:06:16.379Z,80.53
2019-03-26T05:08:48.907Z,80.43
2019-03-26T05:11:21.405Z,81.22
2019-03-26T05:13:53.965Z,80.30
2019-03-26T05:16:26.556Z,80.91
2019-03-26T05:18:59.175Z,80.15
2019-03-26T05:21:31.565Z,80.33
2019-03-26T05:24:04.285Z,80.72
2019-03-26T05:26:36.817Z,79.86
2019-03-26T05:29:09.385Z,79.88
2019-03-26T05:31:41.894Z,80.50
2019-03-26T05:34:14.719Z,79.56
2019-03-26T05:36:51.629Z,80.54
2019-03-26T05:39:21.805Z,79.03
2019-03-26T05:41:54.565Z,79.73
2019-03-26T05:44:27.077Z,78.97
2019-03-26T05:47:01.719Z,78.82
2019-03-26T05:49:33.887Z,79.96
2019-03-26T05:52:06.555Z,78.93
2019-03-26T05:54:39.173Z,78.62
2019-03-26T05:57:11.684Z,79.79
2019-03-26T05:59:44.373Z,80.73
2019-03-26T06:02:18.140Z,80.30
2019-03-26T06:04:51.003Z,79.71
2019-03-26T06:07:23.595Z,78.91
2019-03-26T06:09:56.165Z,79.38
2019-03-26T06:12:28.775Z,80.01
2019-03-26T06:15:01.551Z,79.13
2019-03-26T06:17:34.053Z,79.38
2019-03-26T06:20:07.384Z,78.65
2019-03-26T06:22:39.895Z,78.11
2019-03-26T06:25:13.278Z,77.62
2019-03-26T06:27:46.008Z,77.16
2019-03-26T06:30:19.823Z,77.04
2019-03-26T06:32:53.474Z,78.30
2019-03-26T06:35:26.129Z,77.25
2019-03-26T06:37:58.646Z,77.65
2019-03-26T06:40:31.205Z,77.98
2019-03-26T06:43:03.785Z,77.86
2019-03-26T06:45:36.533Z,76.22
2019-03-26T06:48:09.078Z,74.30
2019-03-26T06:50:41.660Z,73.49
2019-03-26T06:53:14.147Z,72.95
2019-03-26T06:55:46.806Z,71.32
2019-03-26T06:58:19.286Z,72.01
2019-03-26T07:00:53.146Z,71.72
2019-03-26T07:03:25.835Z,71.65
2019-03-26T07:05:58.516Z,71.68
2019-03-26T07:08:31.015Z,72.34
2019-03-26T07:11:03.707Z,72.32
2019-03-26T07:13:36.487Z,72.37
2019-03-26T07:16:09.195Z,71.94
2019-03-26T07:18:41.790Z,71.33
2019-03-26T07:21:14.775Z,70.27
2019-03-26T07:23:47.246Z,70.48
2019-03-26T07:26:19.825Z,70.45
2019-03-26T07:28:52.367Z,70.13
2019-03-26T07:31:25.329Z,70.32
2019-03-26T07:33:57.765Z,70.70
2019-03-26T07:36:30.567Z,70.89
2019-03-26T07:39:04.965Z,70.44
2019-03-26T07:41:37.545Z,69.88
2019-03-26T07:44:10.258Z,69.00
2019-03-26T07:46:42.896Z,68.75
2019-03-26T07:49:15.501Z,68.93
2019-03-26T07:51:48.090Z,68.64
2019-03-26T07:54:22.245Z,68.88
2019-03-26T07:56:55.055Z,67.78
2019-03-26T07:59:27.675Z,66.61
2019-03-26T08:02:00.371Z,66.90
2019-03-26T08:04:33.106Z,66.97
2019-03-26T08:07:05.958Z,65.23
2019-03-26T08:09:38.739Z,63.76
2019-03-26T08:12:11.306Z,63.32
2019-03-26T08:14:46.893Z,62.98
2019-03-26T08:17:19.353Z,63.65
2019-03-26T08:19:51.939Z,63.37
2019-03-26T08:22:24.547Z,63.89
2019-03-26T08:24:57.026Z,63.73
2019-03-26T08:27:30.006Z,62.48
2019-03-26T08:30:03.179Z,61.34
2019-03-26T08:32:37.287Z,61.85
2019-03-26T08:35:11.285Z,60.32
2019-03-26T08:37:43.828Z,59.26
2019-03-26T08:40:17.843Z,58.20
2019-03-26T08:42:51.505Z,59.88
2019-03-26T08:45:24.183Z,59.40
2019-03-26T08:47:56.816Z,58.72
2019-03-26T08:50:29.286Z,56.34
2019-03-26T08:53:01.833Z,54.85
2019-03-26T08:55:34.834Z,53.83
2019-03-26T08:58:07.514Z,53.01
2019-03-26T09:00:40.327Z,52.35
2019-03-26T09:03:12.866Z,50.42
2019-03-26T09:05:45.915Z,52.31
2019-03-26T09:08:25.312Z,50.43
2019-03-26T09:10:53.275Z,52.61
2019-03-26T09:13:26.003Z,52.14
2019-03-26T09:15:58.894Z,50.97
2019-03-26T09:18:31.554Z,51.83
2019-03-26T09:21:04.084Z,50.33
2019-03-26T09:23:36.888Z,49.35
2019-03-26T09:26:09.484Z,50.03
2019-03-26T09:28:42.067Z,50.95
2019-03-26T09:31:14.829Z,52.22
2019-03-26T09:33:48.296Z,53.23
2019-03-26T09:36:20.956Z,51.25
2019-03-26T09:38:53.576Z,50.77
2019-03-26T09:41:26.327Z,51.71
2019-03-26T09:43:58.950Z,50.60
2019-03-26T09:46:31.469Z,51.29
2019-03-26T09:49:04.007Z,50.90
2019-03-26T09:51:36.571Z,48.76
2019-03-26T09:54:09.246Z,47.91
2019-03-26T09:56:45.508Z,48.33
2019-03-26T09:59:18.176Z,49.38
2019-03-26T10:01:53.716Z,49.46
2019-03-26T10:04:26.398Z,49.25
2019-03-26T10:06:59.201Z,51.36
2019-03-26T10:09:31.908Z,50.51
2019-03-26T10:12:04.797Z,50.30
2019-03-26T10:14:37.408Z,51.75
2019-03-26T10:17:10.008Z,50.86
2019-03-26T10:19:42.836Z,52.39
2019-03-26T10:22:15.386Z,51.42
2019-03-26T10:24:48.046Z,52.07
2019-03-26T10:27:20.726Z,52.60
2019-03-26T10:29:53.786Z,52.18
2019-03-26T10:32:26.616Z,52.99
2019-03-26T10:34:59.156Z,54.29
2019-03-26T10:37:31.647Z,53.39
2019-03-26T10:40:04.336Z,52.55
2019-03-26T10:42:37.096Z,53.22
2019-03-26T10:45:10.419Z,51.32
2019-03-26T10:47:42.994Z,48.96
2019-03-26T10:50:15.576Z,47.71
2019-03-26T10:52:48.126Z,49.51
2019-03-26T10:55:20.986Z,48.93
2019-03-26T10:57:53.566Z,47.54
2019-03-26T11:00:26.676Z,44.13
2019-03-26T11:02:59.306Z,44.81
2019-03-26T11:05:31.899Z,46.81
2019-03-26T11:08:04.558Z,49.00
2019-03-26T11:10:37.226Z,48.06
2019-03-26T11:13:09.697Z,49.28
2019-03-26T11:15:42.310Z,50.04
2019-03-26T11:18:15.044Z,50.49
2019-03-26T11:21:01.352Z,51.16
2019-03-26T11:23:21.861Z,52.07
2019-03-26T11:25:54.561Z,51.18
2019-03-26T11:28:27.306Z,50.11
2019-03-26T11:30:59.916Z,49.04
2019-03-26T11:33:32.644Z,48.76
2019-03-26T11:36:05.356Z,48.66
2019-03-26T11:38:37.877Z,48.54
2019-03-26T11:41:10.747Z,48.86
2019-03-26T11:43:43.518Z,48.47
2019-03-26T11:46:16.084Z,48.34
2019-03-26T11:48:49.165Z,50.54
2019-03-26T11:51:21.668Z,50.57
2019-03-26T11:53:54.334Z,51.30
2019-03-26T11:56:27.062Z,52.17
2019-03-26T11:58:59.526Z,51.39
2019-03-26T12:01:32.136Z,50.41
2019-03-26T12:04:05.147Z,48.99
2019-03-26T12:06:37.906Z,49.80
2019-03-26T12:09:10.791Z,51.26
2019-03-26T12:11:43.497Z,52.55
2019-03-26T12:14:15.968Z,52.26
2019-03-26T12:16:48.736Z,51.75
2019-03-26T12:19:21.324Z,51.18
2019-03-26T12:21:53.794Z,51.74
2019-03-26T12:24:26.277Z,52.02
2019-03-26T12:26:59.088Z,51.73
2019-03-26T12:29:31.716Z,52.33
2019-03-26T12:32:04.300Z,52.24
2019-03-26T12:34:37.168Z,52.61
2019-03-26T12:37:09.965Z,52.36
2019-03-26T12:39:44.237Z,52.39
2019-03-26T12:42:17.918Z,52.80
2019-03-26T12:44:50.554Z,53.42
2019-03-26T12:47:23.414Z,53.52
2019-03-26T12:49:55.956Z,54.19
2019-03-26T12:52:28.547Z,54.14
2019-03-26T12:55:01.146Z,54.38
2019-03-26T12:57:33.675Z,53.11
2019-03-26T13:00:08.418Z,51.53
2019-03-26T13:02:41.258Z,51.14
2019-03-26T13:05:15.108Z,51.77
2019-03-26T13:07:47.726Z,51.76
2019-03-26T13:10:20.446Z,52.39
2019-03-26T13:12:53.225Z,52.48
2019-03-26T13:15:25.826Z,53.52
2019-03-26T13:17:58.376Z,54.37
2019-03-26T13:20:32.066Z,55.19
2019-03-26T13:23:04.867Z,55.16
2019-03-26T13:25:37.446Z,54.81
2019-03-26T13:28:10.106Z,55.83
2019-03-26T13:30:42.616Z,57.64
2019-03-26T13:33:15.306Z,57.10
2019-03-26T13:35:47.896Z,56.58
2019-03-26T13:38:20.687Z,56.54
2019-03-26T13:40:53.488Z,57.42
2019-03-26T13:43:25.996Z,58.17
2019-03-26T13:45:59.746Z,58.63
2019-03-26T13:48:32.346Z,58.18
2019-03-26T13:51:05.092Z,57.52
2019-03-26T13:53:37.630Z,57.88
2019-03-26T13:56:10.276Z,57.15
2019-03-26T13:58:43.206Z,56.82
2019-03-26T14:01:16.038Z,57.53
2019-03-26T14:03:48.816Z,59.62
2019-03-26T14:06:21.446Z,61.95
2019-03-26T14:08:54.071Z,59.61
2019-03-26T14:11:26.647Z,59.53
2019-03-26T14:13:59.267Z,57.22
2019-03-26T14:16:32.066Z,56.98
2019-03-26T14:19:04.816Z,55.05
2019-03-26T14:21:37.334Z,52.46
2019-03-26T14:24:13.173Z,51.91
2019-03-26T14:26:44.335Z,47.79
2019-03-26T14:29:17.276Z,46.68
2019-03-26T14:31:49.996Z,45.14
2019-03-26T14:34:22.832Z,47.61
2019-03-26T14:36:55.334Z,46.72
2019-03-26T14:39:27.828Z,47.06
2019-03-26T14:42:00.534Z,47.70
2019-03-26T14:44:34.164Z,46.67
2019-03-26T14:47:06.603Z,46.85
2019-03-26T14:49:40.156Z,46.28
2019-03-26T14:52:12.597Z,47.56
2019-03-26T14:54:45.185Z,47.48
2019-03-26T14:57:17.866Z,47.32
2019-03-26T14:59:51.266Z,48.85
2019-03-26T15:02:23.926Z,49.89
2019-03-26T15:04:56.673Z,53.00
2019-03-26T15:07:29.236Z,56.86
2019-03-26T15:10:01.776Z,59.83
2019-03-26T15:12:34.506Z,60.09
2019-03-26T15:15:08.468Z,59.93
2019-03-26T15:17:42.006Z,60.60
2019-03-26T15:20:14.878Z,64.96
2019-03-26T15:22:47.366Z,67.69
2019-03-26T15:25:19.996Z,68.08
2019-03-26T15:27:52.569Z,68.03
2019-03-26T15:30:25.306Z,69.82
2019-03-26T15:32:58.952Z,69.24
2019-03-26T15:35:31.669Z,69.15
2019-03-26T15:38:04.323Z,69.22
2019-03-26T15:40:37.046Z,69.77
2019-03-26T15:43:09.685Z,71.34
2019-03-26T15:45:42.313Z,71.59
2019-03-26T15:48:14.856Z,74.86
2019-03-26T15:50:48.386Z,77.85
2019-03-26T15:53:21.026Z,79.57
2019-03-26T15:55:53.706Z,80.61
2019-03-26T15:58:26.316Z,81.33
2019-03-26T16:00:59.107Z,82.11
2019-03-26T16:03:31.727Z,83.20
2019-03-26T16:06:04.516Z,83.96
2019-03-26T16:08:37.277Z,83.09
2019-03-26T16:11:09.976Z,83.43
2019-03-26T16:13:42.608Z,81.66
2019-03-26T16:16:15.306Z,82.92
2019-03-26T16:18:47.876Z,83.04
2019-03-26T16:21:20.728Z,82.66
2019-03-26T16:23:53.265Z,83.30
2019-03-26T16:26:25.785Z,82.43
2019-03-26T16:28:58.286Z,83.53
2019-03-26T16:31:30.846Z,83.06
2019-03-26T16:34:03.578Z,77.99
2019-03-26T16:36:36.538Z,79.32
2019-03-26T16:39:09.556Z,80.59
2019-03-26T16:41:48.857Z,81.55
2019-03-26T16:44:16.690Z,81.26
2019-03-26T16:46:49.228Z,82.10
2019-03-26T16:49:21.906Z,81.15
2019-03-26T16:51:54.734Z,81.17
2019-03-26T16:54:27.436Z,82.45
2019-03-26T16:57:00.046Z,80.71
2019-03-26T16:59:32.781Z,81.57
2019-03-26T17:02:05.486Z,81.16
2019-03-26T17:04:38.068Z,81.66
2019-03-26T17:07:10.777Z,81.04
2019-03-26T17:09:43.286Z,82.12
2019-03-26T17:12:17.889Z,80.85
2019-03-26T17:14:50.446Z,80.47
2019-03-26T17:17:30.466Z,79.90
2019-03-26T17:20:03.325Z,80.50
2019-03-26T17:22:37.296Z,81.75
2019-03-26T17:25:10.310Z,81.96
2019-03-26T17:27:42.830Z,80.84
2019-03-26T17:30:15.736Z,79.85
2019-03-26T17:32:48.476Z,79.97
2019-03-26T17:35:21.267Z,80.47
2019-03-26T17:38:00.101Z,79.27
2019-03-26T17:40:28.347Z,79.79
2019-03-26T17:43:01.098Z,78.91
2019-03-26T17:45:34.505Z,79.46
2019-03-26T17:48:07.186Z,79.29
2019-03-26T17:50:39.765Z,79.84
2019-03-26T17:53:13.416Z,79.78
2019-03-26T17:55:46.968Z,79.29
2019-03-26T17:58:19.727Z,80.58
2019-03-26T18:00:52.685Z,79.87
2019-03-26T18:03:26.883Z,80.29
2019-03-26T18:05:59.816Z,79.32
2019-03-26T18:08:32.669Z,80.34
2019-03-26T18:11:05.154Z,80.40
2019-03-26T18:13:37.846Z,79.50
2019-03-26T18:16:10.346Z,80.13
2019-03-26T18:18:43.006Z,80.16
2019-03-26T18:21:15.696Z,79.81
2019-03-26T18:23:48.406Z,80.79
2019-03-26T18:26:21.235Z,80.19
2019-03-26T18:28:55.423Z,79.69
2019-03-26T18:31:28.174Z,79.86
2019-03-26T18:34:00.716Z,81.11
2019-03-26T18:36:33.485Z,80.08
2019-03-26T18:39:09.259Z,79.47
2019-03-26T18:41:42.994Z,81.18
2019-03-26T18:44:16.294Z,79.57
2019-03-26T18:46:53.126Z,81.24
2019-03-26T18:49:29.976Z,81.14
2019-03-26T18:52:02.796Z,81.15
2019-03-26T18:54:36.110Z,80.53
2019-03-26T18:57:09.894Z,80.36
2019-03-26T18:59:42.937Z,80.73
2019-03-26T19:02:17.009Z,80.06
2019-03-26T19:04:49.934Z,80.10
2019-03-26T19:07:24.596Z,80.42
2019-03-26T19:10:00.363Z,79.48
2019-03-26T19:12:33.434Z,81.33
2019-03-26T19:15:07.425Z,80.86
2019-03-26T19:17:40.494Z,80.71
2019-03-26T19:20:15.816Z,80.93
2019-03-26T19:22:48.914Z,81.27
2019-03-26T19:25:23.107Z,80.42
2019-03-26T19:27:56.368Z,80.62
2019-03-26T19:30:29.267Z,80.16
2019-03-26T19:33:02.144Z,80.40
2019-03-26T19:35:35.216Z,80.56
2019-03-26T19:38:08.361Z,79.90
2019-03-26T19:40:41.357Z,79.26
2019-03-26T19:43:14.286Z,79.51
2019-03-26T19:45:48.393Z,78.83
2019-03-26T19:48:21.247Z,77.89
2019-03-26T19:50:53.963Z,77.54
2019-03-26T19:53:26.635Z,76.57
2019-03-26T19:55:59.936Z,76.76
2019-03-26T19:58:32.505Z,76.96
2019-03-26T20:01:05.367Z,77.00
2019-03-26T20:03:38.177Z,75.62
2019-03-26T20:06:13.621Z,75.09
2019-03-26T20:08:45.504Z,74.86
2019-03-26T20:11:18.487Z,74.75
2019-03-26T20:13:52.204Z,74.62
2019-03-26T20:16:27.330Z,74.88
2019-03-26T20:19:00.717Z,75.70
2019-03-26T20:21:34.122Z,75.98
2019-03-26T20:24:07.184Z,76.21
2019-03-26T20:26:39.956Z,75.89
2019-03-26T20:29:12.887Z,76.06
2019-03-26T20:31:45.691Z,77.14
2019-03-26T20:34:18.645Z,76.74
2019-03-26T20:36:51.413Z,76.35
2019-03-26T20:39:25.146Z,75.81
2019-03-26T20:41:58.639Z,76.42
2019-03-26T20:44:31.537Z,75.41
2019-03-26T20:47:04.204Z,75.19
2019-03-26T20:49:36.865Z,74.86
2019-03-26T20:52:09.787Z,74.01
2019-03-26T20:54:42.496Z,74.07
2019-03-26T20:57:15.793Z,74.02
2019-03-26T20:59:48.894Z,73.61
2019-03-26T21:02:21.776Z,73.91
2019-03-26T21:04:54.438Z,73.78
2019-03-26T21:07:27.086Z,73.77
2019-03-26T21:09:59.824Z,73.62
2019-03-26T21:12:32.446Z,73.07
2019-03-26T21:15:05.427Z,73.77
2019-03-26T21:17:38.727Z,73.76
2019-03-26T21:20:11.667Z,73.61
2019-03-26T21:22:44.275Z,73.74
2019-03-26T21:25:17.306Z,74.38
2019-03-26T21:27:50.050Z,75.15
2019-03-26T21:30:22.876Z,75.76
2019-03-26T21:32:55.973Z,76.35
2019-03-26T21:35:29.187Z,76.71
2019-03-26T21:38:02.025Z,77.05
2019-03-26T21:40:35.274Z,76.67
2019-03-26T21:43:07.895Z,78.00
2019-03-26T21:45:41.803Z,77.02
2019-03-26T21:48:15.339Z,76.82
2019-03-26T21:50:47.946Z,77.69
2019-03-26T21:53:20.697Z,76.71
2019-03-26T21:56:05.887Z,76.38
2019-03-26T21:58:27.596Z,76.68
2019-03-26T22:01:00.376Z,76.60
2019-03-26T22:03:33.048Z,76.87
2019-03-26T22:06:05.896Z,76.25
2019-03-26T22:08:38.406Z,76.35
2019-03-26T22:11:11.056Z,76.14
2019-03-26T22:17:23.225Z,75.70
2019-03-26T22:19:56.746Z,75.76
2019-03-26T22:22:29.516Z,75.56
2019-03-26T22:25:02.136Z,76.24
2019-03-26T22:27:34.829Z,76.35
2019-03-26T22:30:07.965Z,75.85
2019-03-26T22:32:40.807Z,75.45
2019-03-26T22:35:13.436Z,75.80
2019-03-26T22:37:46.080Z,75.92
2019-03-26T22:40:18.835Z,76.48
2019-03-26T22:42:52.066Z,76.51
2019-03-26T22:45:25.099Z,76.37
2019-03-26T22:47:57.946Z,76.15
2019-03-26T22:50:30.876Z,75.97
2019-03-26T22:53:03.556Z,76.37
2019-03-26T22:55:36.158Z,76.15
2019-03-26T22:58:08.999Z,75.59
2019-03-26T23:00:42.325Z,76.05
2019-03-26T23:03:16.518Z,75.98
2019-03-26T23:05:49.546Z,76.31
2019-03-26T23:08:22.186Z,75.68
2019-03-26T23:10:54.876Z,75.62
2019-03-26T23:13:27.876Z,76.37
2019-03-26T23:16:00.707Z,76.22
2019-03-26T23:18:33.608Z,75.85
2019-03-26T23:21:06.546Z,76.59
2019-03-26T23:23:39.197Z,76.20
2019-03-26T23:26:11.907Z,76.34
2019-03-26T23:28:44.593Z,76.52
2019-03-26T23:31:17.308Z,76.83
2019-03-26T23:33:49.980Z,76.57
2019-03-26T23:36:22.726Z,76.57
2019-03-26T23:38:55.286Z,76.63
2019-03-26T23:41:27.937Z,76.88
2019-03-26T23:44:00.627Z,76.39
2019-03-26T23:46:33.135Z,76.98
2019-03-26T23:49:05.746Z,76.47
2019-03-26T23:51:38.227Z,76.53
2019-03-26T23:54:10.896Z,76.87
2019-03-26T23:56:43.816Z,77.00
2019-03-26T23:59:16.407Z,76.82
